Time;durP1;ratioP1;P1;durP2;ratioP2;P2;SDS_P1;SDS_P2;PMS_P1;PMS_P2;Temp;Humidity;BMP_temperature;BMP_pressure;BME280_temperature;BME280_humidity;BME280_pressure;Samples;Min_cycle;Max_cycle;Signal;HPM_P1;HPM_P2
2024/04/15 00:04:11;;;;;;;3.45;1.60;;;;;;;;;;11103282;26;20020;-73
2024/04/15 00:09:19;;;;;;;3.05;1.48;;;;;;;;;;11110258;26;20011;-73
2024/04/15 00:14:24;;;;;;;2.63;1.25;;;;;;;;;;11104010;26;20013;-73
2024/04/15 00:19:29;;;;;;;5.05;1.30;;;;;;;;;;11110763;26;20016;-73
2024/04/15 00:24:37;;;;;;;3.80;1.33;;;;;;;;;;11107974;26;20008;-73
2024/04/15 00:29:42;;;;;;;1.85;1.20;;;;;;;;;;11113252;26;20023;-73
2024/04/15 00:34:47;;;;;;;2.50;1.50;;;;;;;;;;11111976;26;20008;-73
2024/04/15 00:39:55;;;;;;;2.20;1.38;;;;;;;;;;11112123;26;20023;-73
2024/04/15 00:45:00;;;;;;;2.50;1.30;;;;;;;;;;11103702;26;20024;-73
2024/04/15 00:50:05;;;;;;;1.90;1.25;;;;;;;;;;11103304;26;20454;-73
2024/04/15 00:55:13;;;;;;;3.10;1.40;;;;;;;;;;11110572;26;20026;-73
2024/04/15 01:00:19;;;;;;;2.70;1.55;;;;;;;;;;11073410;26;20004;-73
2024/04/15 01:05:24;;;;;;;2.33;1.10;;;;;;;;;;11156100;26;20026;-73
2024/04/15 01:10:32;;;;;;;1.67;1.20;;;;;;;;;;11183001;26;20018;-73
2024/04/15 01:15:39;;;;;;;2.58;1.20;;;;;;;;;;11148647;26;20011;-73
2024/04/15 01:20:44;;;;;;;2.08;1.20;;;;;;;;;;11182191;26;20008;-73
2024/04/15 01:25:52;;;;;;;1.67;1.40;;;;;;;;;;11185910;26;20015;-73
2024/04/15 01:30:57;;;;;;;2.50;1.50;;;;;;;;;;11189691;26;20022;-73
2024/04/15 01:36:02;;;;;;;2.45;1.40;;;;;;;;;;11188419;26;20746;-73
2024/04/15 01:41:10;;;;;;;3.10;1.55;;;;;;;;;;11184126;26;20026;-73
2024/04/15 01:46:15;;;;;;;2.65;1.23;;;;;;;;;;11186785;26;20003;-73
2024/04/15 01:51:20;;;;;;;2.17;1.30;;;;;;;;;;11180575;26;20011;-73
2024/04/15 01:56:28;;;;;;;1.53;1.10;;;;;;;;;;11177378;26;20007;-73
2024/04/15 02:01:33;;;;;;;3.53;1.50;;;;;;;;;;11178207;26;20012;-73
2024/04/15 02:06:38;;;;;;;3.38;1.73;;;;;;;;;;11175652;26;20025;-73
2024/04/15 02:11:45;;;;;;;3.85;1.90;;;;;;;;;;11176835;26;20057;-73
2024/04/15 02:16:51;;;;;;;2.08;1.40;;;;;;;;;;11167863;26;20100;-73
2024/04/15 02:21:56;;;;;;;1.83;1.15;;;;;;;;;;11166419;26;20004;-73
2024/04/15 02:27:04;;;;;;;2.75;1.80;;;;;;;;;;11151973;26;20042;-73
2024/04/15 02:32:09;;;;;;;3.00;1.42;;;;;;;;;;11153667;26;20618;-73
2024/04/15 02:37:14;;;;;;;2.15;1.35;;;;;;;;;;11185717;26;20016;-73
2024/04/15 02:42:21;;;;;;;4.45;2.00;;;;;;;;;;11184710;26;20062;-73
2024/04/15 02:47:26;;;;;;;3.08;1.70;;;;;;;;;;11191628;26;20011;-73
2024/04/15 02:52:31;;;;;;;3.30;1.55;;;;;;;;;;11189222;26;20004;-73
2024/04/15 02:57:39;;;;;;;3.83;1.63;;;;;;;;;;11157267;26;20022;-73
2024/04/15 03:02:44;;;;;;;5.30;1.85;;;;;;;;;;11185526;26;20344;-73
2024/04/15 03:07:50;;;;;;;4.25;1.88;;;;;;;;;;11184774;26;20007;-73
2024/04/15 03:12:57;;;;;;;3.20;1.67;;;;;;;;;;11190723;26;20485;-73
2024/04/15 03:18:04;;;;;;;3.38;1.83;;;;;;;;;;11178382;26;20012;-73
2024/04/15 03:23:09;;;;;;;3.60;1.73;;;;;;;;;;11176144;26;20007;-74
2024/04/15 03:28:17;;;;;;;2.97;1.52;;;;;;;;;;11169100;26;20030;-73
2024/04/15 03:33:22;;;;;;;3.35;2.00;;;;;;;;;;11177239;26;20039;-73
2024/04/15 03:38:27;;;;;;;3.28;1.90;;;;;;;;;;11158456;26;20012;-74
2024/04/15 03:43:36;;;;;;;3.63;1.90;;;;;;;;;;11153290;26;22256;-73
2024/04/15 03:48:41;;;;;;;3.22;1.63;;;;;;;;;;11186277;26;20008;-73
2024/04/15 03:53:46;;;;;;;3.03;1.67;;;;;;;;;;11188329;26;20475;-73
2024/04/15 03:58:53;;;;;;;3.80;1.80;;;;;;;;;;11183360;26;20019;-73
2024/04/15 04:03:58;;;;;;;3.88;1.50;;;;;;;;;;11157829;26;20018;-73
2024/04/15 04:09:03;;;;;;;5.90;2.30;;;;;;;;;;11184245;26;20012;-73
2024/04/15 04:14:11;;;;;;;2.83;1.70;;;;;;;;;;11187843;26;20535;-73
2024/04/15 04:19:16;;;;;;;3.15;1.95;;;;;;;;;;11182923;26;20011;-73
2024/04/15 04:24:21;;;;;;;2.20;1.55;;;;;;;;;;11187161;26;20023;-73
2024/04/15 04:29:28;;;;;;;3.30;2.13;;;;;;;;;;11182850;26;20436;-73
2024/04/15 04:34:37;;;;;;;2.33;1.90;;;;;;;;;;11177061;26;20085;-73
2024/04/15 04:39:42;;;;;;;3.65;1.70;;;;;;;;;;11177723;26;20018;-73
2024/04/15 04:44:50;;;;;;;3.70;1.88;;;;;;;;;;11183688;26;20011;-73
2024/04/15 04:49:56;;;;;;;3.40;2.17;;;;;;;;;;11103731;26;20026;-73
2024/04/15 04:55:01;;;;;;;3.65;1.88;;;;;;;;;;11156623;26;20008;-73
2024/04/15 05:00:10;;;;;;;3.22;2.20;;;;;;;;;;11182889;26;20027;-73
2024/04/15 05:05:15;;;;;;;3.72;1.88;;;;;;;;;;11184533;26;20030;-73
2024/04/15 05:10:20;;;;;;;5.38;2.22;;;;;;;;;;11182315;26;20019;-73
2024/04/15 05:15:27;;;;;;;1.95;1.70;;;;;;;;;;11137865;26;20018;-73
2024/04/15 05:20:38;;;;;;;4.05;2.10;;;;;;;;;;11180179;26;20026;-73
2024/04/15 05:25:43;;;;;;;3.50;2.00;;;;;;;;;;11184863;26;20062;-73
2024/04/15 05:30:51;;;;;;;2.92;1.73;;;;;;;;;;11184629;26;20348;-73
2024/04/15 05:35:56;;;;;;;3.90;2.15;;;;;;;;;;11181446;26;20003;-74
2024/04/15 05:41:01;;;;;;;2.60;1.40;;;;;;;;;;11184968;26;20003;-74
2024/04/15 05:46:10;;;;;;;2.55;1.80;;;;;;;;;;11105448;26;20023;-73
2024/04/15 05:51:16;;;;;;;4.78;2.00;;;;;;;;;;11109787;26;20024;-74
2024/04/15 05:56:23;;;;;;;3.38;1.75;;;;;;;;;;11161735;26;20018;-74
2024/04/15 06:01:30;;;;;;;3.20;1.73;;;;;;;;;;11181523;26;20137;-74
2024/04/15 06:06:35;;;;;;;2.28;1.70;;;;;;;;;;11167370;26;20449;-73
2024/04/15 06:11:40;;;;;;;2.30;1.45;;;;;;;;;;11177456;26;20007;-73
2024/04/15 06:16:48;;;;;;;2.05;1.33;;;;;;;;;;11179566;26;20019;-74
2024/04/15 06:21:54;;;;;;;3.45;1.70;;;;;;;;;;11173727;26;20341;-74
2024/04/15 06:26:59;;;;;;;1.85;1.27;;;;;;;;;;11143221;26;20105;-74
2024/04/15 06:32:08;;;;;;;1.67;1.20;;;;;;;;;;11175299;26;20018;-74
2024/04/15 06:37:13;;;;;;;3.45;1.55;;;;;;;;;;11180246;26;20012;-73
2024/04/15 06:42:18;;;;;;;2.67;1.10;;;;;;;;;;11150265;26;20491;-74
2024/04/15 06:47:25;;;;;;;3.42;1.00;;;;;;;;;;11180485;26;20026;-73
2024/04/15 06:52:30;;;;;;;2.58;0.93;;;;;;;;;;11173730;26;20019;-74
2024/04/15 06:57:36;;;;;;;2.78;0.88;;;;;;;;;;11146885;26;20470;-73
2024/04/15 07:02:44;;;;;;;3.85;1.00;;;;;;;;;;11150274;26;20004;-74
2024/04/15 07:07:49;;;;;;;3.53;1.40;;;;;;;;;;11176603;26;20091;-74
2024/04/15 07:12:54;;;;;;;5.22;1.02;;;;;;;;;;11143893;26;20102;-73
2024/04/15 07:18:02;;;;;;;3.60;1.00;;;;;;;;;;11149751;26;20023;-74
2024/04/15 07:23:07;;;;;;;3.42;0.88;;;;;;;;;;11184524;26;20007;-73
2024/04/15 07:28:13;;;;;;;2.80;0.85;;;;;;;;;;11189451;26;20854;-73
2024/04/15 07:33:21;;;;;;;4.78;1.17;;;;;;;;;;11179911;26;20008;-73
2024/04/15 07:38:26;;;;;;;2.50;0.90;;;;;;;;;;11190787;26;20003;-73
2024/04/15 07:43:31;;;;;;;2.50;0.93;;;;;;;;;;11177868;26;20019;-73
2024/04/15 07:48:39;;;;;;;2.13;1.02;;;;;;;;;;11171666;26;20259;-73
2024/04/15 07:53:46;;;;;;;1.92;0.80;;;;;;;;;;11149652;26;20008;-73
2024/04/15 07:58:51;;;;;;;4.35;1.20;;;;;;;;;;11182834;26;20011;-73
2024/04/15 08:03:59;;;;;;;2.03;1.00;;;;;;;;;;11182343;26;20004;-73
2024/04/15 08:09:04;;;;;;;5.07;0.90;;;;;;;;;;11181672;26;20004;-73
2024/04/15 08:14:10;;;;;;;2.92;0.90;;;;;;;;;;11186863;26;20012;-73
2024/04/15 08:19:17;;;;;;;5.38;1.10;;;;;;;;;;11186826;26;20015;-73
2024/04/15 08:24:22;;;;;;;3.88;1.10;;;;;;;;;;11182565;26;20003;-73
2024/04/15 08:29:28;;;;;;;7.23;1.57;;;;;;;;;;11173825;26;20015;-73
2024/04/15 08:34:36;;;;;;;2.63;0.82;;;;;;;;;;11179472;26;20008;-73
2024/04/15 08:39:42;;;;;;;3.38;0.75;;;;;;;;;;11188057;26;20022;-73
2024/04/15 08:44:48;;;;;;;2.63;0.82;;;;;;;;;;11189466;26;20019;-73
2024/04/15 08:49:56;;;;;;;2.28;0.93;;;;;;;;;;11184573;26;20011;-73
2024/04/15 08:55:03;;;;;;;3.15;1.20;;;;;;;;;;11112472;26;20023;-73
2024/04/15 09:00:11;;;;;;;1.83;0.68;;;;;;;;;;11106454;26;20780;-73
2024/04/15 09:05:19;;;;;;;2.70;0.65;;;;;;;;;;11172146;26;20008;-73
2024/04/15 09:10:25;;;;;;;4.75;1.02;;;;;;;;;;11123807;26;20066;-73
2024/04/15 09:15:30;;;;;;;4.07;1.10;;;;;;;;;;11177240;26;20122;-74
2024/04/15 09:20:39;;;;;;;2.90;0.90;;;;;;;;;;11180815;26;20011;-74
2024/04/15 09:25:47;;;;;;;4.20;1.20;;;;;;;;;;11174758;26;20044;-74
2024/04/15 09:30:52;;;;;;;4.07;0.80;;;;;;;;;;11178584;26;20012;-74
2024/04/15 09:36:00;;;;;;;2.78;0.90;;;;;;;;;;11174471;26;20080;-74
2024/04/15 09:41:06;;;;;;;4.18;1.05;;;;;;;;;;11090191;26;20008;-74
2024/04/15 09:46:12;;;;;;;5.30;0.85;;;;;;;;;;11153551;26;20019;-74
2024/04/15 09:51:26;;;;;;;3.42;1.00;;;;;;;;;;11182280;26;20474;-74
2024/04/15 09:56:35;;;;;;;3.88;1.13;;;;;;;;;;11174331;26;20003;-73
2024/04/15 10:01:43;;;;;;;2.00;0.80;;;;;;;;;;11144309;26;20004;-73
2024/04/15 10:06:54;;;;;;;4.15;0.70;;;;;;;;;;11146806;26;20007;-73
2024/04/15 10:11:59;;;;;;;2.83;0.50;;;;;;;;;;11149807;26;20667;-73
2024/04/15 10:17:07;;;;;;;1.50;0.57;;;;;;;;;;11180452;26;20030;-73
2024/04/15 10:22:16;;;;;;;2.75;0.77;;;;;;;;;;11179298;26;20008;-73
2024/04/15 10:27:21;;;;;;;2.28;0.82;;;;;;;;;;11163383;26;20047;-73
2024/04/15 10:32:28;;;;;;;4.85;1.00;;;;;;;;;;11172510;26;20451;-73
2024/04/15 10:37:41;;;;;;;2.83;0.68;;;;;;;;;;11143937;26;20011;-73
2024/04/15 10:42:46;;;;;;;4.18;1.00;;;;;;;;;;11154299;26;20022;-73
2024/04/15 10:47:51;;;;;;;1.65;0.57;;;;;;;;;;11180699;26;20397;-73
2024/04/15 10:52:59;;;;;;;3.28;0.68;;;;;;;;;;11180012;26;20008;-73
2024/04/15 10:58:04;;;;;;;4.60;0.80;;;;;;;;;;11175213;26;20030;-73
2024/04/15 11:03:10;;;;;;;3.23;0.87;;;;;;;;;;11187705;26;20705;-73
2024/04/15 11:08:18;;;;;;;2.17;0.80;;;;;;;;;;11153464;26;20012;-73
2024/04/15 11:13:23;;;;;;;2.63;0.80;;;;;;;;;;11184751;26;20012;-73
2024/04/15 11:18:30;;;;;;;1.50;0.57;;;;;;;;;;11179297;26;20011;-73
2024/04/15 11:23:38;;;;;;;4.28;0.90;;;;;;;;;;11170965;26;20004;-73
2024/04/15 11:28:43;;;;;;;2.60;0.80;;;;;;;;;;11184920;26;20011;-73
2024/04/15 11:33:51;;;;;;;4.05;0.75;;;;;;;;;;11178920;26;20019;-73
2024/04/15 11:38:59;;;;;;;6.18;0.90;;;;;;;;;;11179064;26;20026;-72
2024/04/15 11:44:04;;;;;;;1.85;0.68;;;;;;;;;;11173816;26;20008;-73
2024/04/15 11:49:10;;;;;;;5.38;1.02;;;;;;;;;;11186105;26;20012;-73
2024/04/15 11:54:19;;;;;;;1.58;0.60;;;;;;;;;;11185315;26;20351;-73
2024/04/15 11:59:24;;;;;;;4.80;0.70;;;;;;;;;;11185453;26;20034;-72
2024/04/15 12:04:30;;;;;;;3.90;0.83;;;;;;;;;;11184693;26;20179;-73
2024/04/15 12:09:38;;;;;;;3.10;0.80;;;;;;;;;;11188568;26;20007;-73
2024/04/15 12:14:43;;;;;;;15.80;1.48;;;;;;;;;;11183483;26;20019;-73
2024/04/15 12:19:48;;;;;;;3.10;0.60;;;;;;;;;;11188501;26;20745;-73
2024/04/15 12:24:56;;;;;;;2.42;0.63;;;;;;;;;;11188777;26;20012;-73
2024/04/15 12:30:01;;;;;;;4.07;0.82;;;;;;;;;;11181136;26;20007;-73
2024/04/15 12:35:06;;;;;;;2.17;0.80;;;;;;;;;;11183171;26;20004;-73
2024/04/15 12:40:14;;;;;;;6.22;0.88;;;;;;;;;;11153546;26;20472;-73
2024/04/15 12:45:19;;;;;;;3.53;0.77;;;;;;;;;;11178696;26;20016;-73
2024/04/15 12:50:24;;;;;;;7.57;1.25;;;;;;;;;;11180156;26;20015;-73
2024/04/15 12:55:32;;;;;;;3.30;0.73;;;;;;;;;;11183259;26;20546;-73
2024/04/15 13:00:37;;;;;;;4.90;0.85;;;;;;;;;;11182801;26;20015;-73
2024/04/15 13:05:42;;;;;;;4.13;0.88;;;;;;;;;;11184569;26;20004;-73
2024/04/15 13:10:50;;;;;;;4.50;0.60;;;;;;;;;;11149261;26;20012;-73
2024/04/15 13:15:55;;;;;;;2.28;0.70;;;;;;;;;;11178941;26;20008;-73
2024/04/15 13:21:00;;;;;;;4.82;1.10;;;;;;;;;;11182879;26;20007;-73
2024/04/15 13:26:07;;;;;;;8.18;0.85;;;;;;;;;;11174092;26;20022;-73
2024/04/15 13:31:12;;;;;;;5.53;1.40;;;;;;;;;;11168460;26;20011;-73
2024/04/15 13:36:17;;;;;;;5.22;0.90;;;;;;;;;;11178193;26;20003;-73
2024/04/15 13:41:25;;;;;;;2.22;0.80;;;;;;;;;;11179412;26;20484;-73
2024/04/15 13:46:30;;;;;;;3.53;0.65;;;;;;;;;;11140331;26;20008;-73
2024/04/15 13:51:35;;;;;;;4.88;0.90;;;;;;;;;;11182926;26;20007;-73
2024/04/15 13:56:43;;;;;;;3.50;0.95;;;;;;;;;;11177724;26;20441;-73
2024/04/15 14:01:48;;;;;;;5.60;0.90;;;;;;;;;;11182582;26;20019;-73
2024/04/15 14:06:53;;;;;;;4.60;0.90;;;;;;;;;;11182415;26;20003;-72
2024/04/15 14:12:00;;;;;;;1.92;0.90;;;;;;;;;;11181376;26;20007;-73
2024/04/15 14:17:09;;;;;;;2.03;0.65;;;;;;;;;;11191657;26;20096;-72
2024/04/15 14:22:14;;;;;;;4.60;1.02;;;;;;;;;;11152700;26;20030;-72
2024/04/15 14:27:22;;;;;;;1.77;0.90;;;;;;;;;;11168667;26;20481;-72
2024/04/15 14:32:27;;;;;;;3.22;0.82;;;;;;;;;;11179206;26;20014;-72
2024/04/15 14:37:33;;;;;;;6.40;1.17;;;;;;;;;;11177720;26;20062;-73
2024/04/15 14:42:40;;;;;;;1.73;0.63;;;;;;;;;;11199456;26;20022;-72
2024/04/15 14:47:46;;;;;;;5.28;0.88;;;;;;;;;;11189423;26;20015;-72
2024/04/15 14:52:51;;;;;;;4.00;0.75;;;;;;;;;;11186048;26;20629;-72
2024/04/15 14:57:59;;;;;;;6.82;1.25;;;;;;;;;;11189355;26;20018;-73
2024/04/15 15:03:05;;;;;;;2.80;0.57;;;;;;;;;;11184105;26;20015;-73
2024/04/15 15:08:11;;;;;;;2.83;0.98;;;;;;;;;;11186955;26;20592;-73
2024/04/15 15:13:20;;;;;;;2.25;0.70;;;;;;;;;;11182126;26;20456;-73
2024/04/15 15:18:25;;;;;;;3.13;0.70;;;;;;;;;;11166860;26;20019;-73
2024/04/15 15:23:30;;;;;;;5.13;0.80;;;;;;;;;;11163881;26;20022;-73
2024/04/15 15:28:38;;;;;;;5.60;0.80;;;;;;;;;;11172025;26;20007;-73
2024/04/15 15:33:43;;;;;;;5.25;1.38;;;;;;;;;;11175410;26;20018;-73
2024/04/15 15:38:48;;;;;;;3.28;0.70;;;;;;;;;;11173481;26;20004;-73
2024/04/15 15:43:56;;;;;;;1.88;0.73;;;;;;;;;;11185005;26;20016;-73
2024/04/15 15:49:01;;;;;;;5.85;1.35;;;;;;;;;;11188020;26;20007;-73
2024/04/15 15:54:06;;;;;;;2.43;1.10;;;;;;;;;;11175821;26;20018;-73
2024/04/15 15:59:14;;;;;;;4.75;0.90;;;;;;;;;;11193752;21;20000;-73
2024/04/15 16:04:19;;;;;;;9.88;1.27;;;;;;;;;;11183430;26;20007;-73
2024/04/15 16:09:24;;;;;;;2.58;0.80;;;;;;;;;;11184711;26;20007;-73
2024/04/15 16:14:32;;;;;;;2.22;0.68;;;;;;;;;;11185273;26;20011;-73
2024/04/15 16:19:37;;;;;;;1.42;0.70;;;;;;;;;;11185016;26;20000;-73
2024/04/15 16:24:42;;;;;;;3.83;0.90;;;;;;;;;;11180536;26;20012;-74
2024/04/15 16:29:50;;;;;;;0.57;0.50;;;;;;;;;;11184648;26;19999;-73
2024/04/15 16:34:55;;;;;;;3.85;0.90;;;;;;;;;;11185401;26;20000;-74
2024/04/15 16:40:00;;;;;;;1.85;0.40;;;;;;;;;;11187074;26;20008;-74
2024/04/15 16:45:09;;;;;;;0.57;0.40;;;;;;;;;;11187391;26;20488;-74
2024/04/15 16:50:14;;;;;;;1.60;0.65;;;;;;;;;;11189704;26;20031;-74
2024/04/15 16:55:19;;;;;;;1.90;0.60;;;;;;;;;;11182725;26;20027;-74
2024/04/15 17:00:26;;;;;;;2.95;0.55;;;;;;;;;;11184305;26;20019;-74
2024/04/15 17:05:31;;;;;;;3.28;0.50;;;;;;;;;;11180936;26;20344;-74
2024/04/15 17:10:36;;;;;;;0.28;0.28;;;;;;;;;;11183041;26;20022;-73
2024/04/15 17:15:44;;;;;;;1.83;0.60;;;;;;;;;;11186489;26;19999;-74
2024/04/15 17:20:49;;;;;;;0.57;0.30;;;;;;;;;;11187530;26;20012;-74
2024/04/15 17:25:54;;;;;;;1.95;0.50;;;;;;;;;;11184427;26;20026;-74
2024/04/15 17:31:02;;;;;;;1.23;0.52;;;;;;;;;;11181984;26;20007;-74
2024/04/15 17:36:08;;;;;;;0.60;0.60;;;;;;;;;;11176738;26;20022;-74
2024/04/15 17:41:14;;;;;;;1.52;0.50;;;;;;;;;;11182596;26;20491;-73
2024/04/15 17:46:21;;;;;;;0.43;0.43;;;;;;;;;;11183192;26;20008;-73
2024/04/15 17:51:27;;;;;;;1.50;0.50;;;;;;;;;;11180543;26;20118;-74
2024/04/15 17:56:32;;;;;;;0.80;0.50;;;;;;;;;;11211786;26;20018;-73
2024/04/15 18:01:42;;;;;;;0.70;0.47;;;;;;;;;;11178643;26;20011;-74
2024/04/15 18:06:47;;;;;;;1.20;0.88;;;;;;;;;;11183662;26;20341;-74
2024/04/15 18:11:52;;;;;;;2.17;0.77;;;;;;;;;;11187368;26;20018;-76
2024/04/15 18:17:00;;;;;;;1.42;0.63;;;;;;;;;;11179926;26;20007;-76
2024/04/15 18:22:06;;;;;;;2.33;0.50;;;;;;;;;;11181073;26;20110;-73
2024/04/15 18:27:11;;;;;;;0.52;0.52;;;;;;;;;;11180184;26;20007;-73
2024/04/15 18:32:19;;;;;;;1.40;0.88;;;;;;;;;;11185210;26;20015;-73
2024/04/15 18:37:24;;;;;;;3.35;1.58;;;;;;;;;;11183867;26;20096;-73
2024/04/15 18:42:30;;;;;;;0.50;0.50;;;;;;;;;;11174168;26;20019;-73
2024/04/15 18:47:38;;;;;;;;;;;;;;;;;;11177922;26;20370;-73
2024/04/15 18:52:43;;;;;;;0.57;0.40;;;;;;;;;;11180355;26;20373;-73
2024/04/15 18:57:48;;;;;;;0.73;0.50;;;;;;;;;;11178381;26;20085;-73
2024/04/15 19:02:56;;;;;;;2.58;0.50;;;;;;;;;;11179322;26;20018;-73
2024/04/15 19:08:01;;;;;;;0.73;0.55;;;;;;;;;;11181855;26;20391;-73
2024/04/15 19:13:06;;;;;;;0.70;0.60;;;;;;;;;;11181805;26;20011;-73
2024/04/15 19:18:13;;;;;;;0.60;0.60;;;;;;;;;;11180631;26;20008;-73
2024/04/15 19:23:18;;;;;;;0.80;0.50;;;;;;;;;;11186995;26;20019;-73
2024/04/15 19:28:24;;;;;;;1.02;0.57;;;;;;;;;;11184626;26;20203;-73
2024/04/15 19:33:31;;;;;;;0.63;0.52;;;;;;;;;;11189114;26;20008;-73
2024/04/15 19:38:37;;;;;;;1.58;0.70;;;;;;;;;;11188424;26;20022;-72
2024/04/15 19:43:43;;;;;;;4.22;0.98;;;;;;;;;;11185383;26;20007;-76
2024/04/15 19:48:51;;;;;;;1.10;0.77;;;;;;;;;;11185668;26;20007;-76
2024/04/15 19:53:56;;;;;;;1.77;0.70;;;;;;;;;;11205883;26;20666;-75
2024/04/15 19:59:02;;;;;;;1.67;0.60;;;;;;;;;;11185523;26;20470;-75
2024/04/15 20:04:13;;;;;;;2.70;0.80;;;;;;;;;;11184619;26;20007;-75
2024/04/15 20:09:18;;;;;;;4.32;0.80;;;;;;;;;;11186997;26;20021;-76
2024/04/15 20:14:23;;;;;;;3.17;0.90;;;;;;;;;;11187182;26;20026;-75
2024/04/15 20:19:31;;;;;;;2.28;0.80;;;;;;;;;;11185520;26;20011;-75
2024/04/15 20:24:36;;;;;;;1.73;0.68;;;;;;;;;;11173624;26;20008;-76
2024/04/15 20:29:41;;;;;;;2.50;0.90;;;;;;;;;;11183569;26;20022;-75
2024/04/15 20:34:49;;;;;;;2.33;0.70;;;;;;;;;;11185238;26;20011;-75
2024/04/15 20:39:54;;;;;;;2.38;1.10;;;;;;;;;;11183427;26;20573;-75
2024/04/15 20:44:59;;;;;;;1.13;0.63;;;;;;;;;;11184289;26;20470;-75
2024/04/15 20:50:07;;;;;;;3.83;1.27;;;;;;;;;;11185497;26;20012;-75
2024/04/15 20:55:13;;;;;;;2.53;0.98;;;;;;;;;;11179136;26;20114;-75
2024/04/15 21:00:18;;;;;;;3.10;1.02;;;;;;;;;;11185001;26;20361;-75
2024/04/15 21:05:25;;;;;;;3.03;0.68;;;;;;;;;;11194230;26;20012;-75
2024/04/15 21:10:31;;;;;;;1.13;0.80;;;;;;;;;;11180856;26;20007;-75
2024/04/15 21:15:36;;;;;;;1.88;0.90;;;;;;;;;;11183410;26;20008;-75
2024/04/15 21:20:43;;;;;;;3.10;0.82;;;;;;;;;;11183530;26;20023;-75
2024/04/15 21:25:48;;;;;;;1.50;0.80;;;;;;;;;;11181818;26;20003;-75
2024/04/15 21:30:54;;;;;;;2.42;1.00;;;;;;;;;;11181222;26;19999;-75
2024/04/15 21:36:02;;;;;;;2.97;0.90;;;;;;;;;;11182388;26;20007;-75
2024/04/15 21:41:07;;;;;;;2.33;0.88;;;;;;;;;;11182198;26;20285;-75
2024/04/15 21:46:12;;;;;;;1.27;0.63;;;;;;;;;;11181849;26;20023;-75
2024/04/15 21:51:20;;;;;;;2.33;0.90;;;;;;;;;;11181803;26;20015;-75
2024/04/15 21:56:25;;;;;;;1.10;0.70;;;;;;;;;;11180751;26;20827;-73
2024/04/15 22:01:30;;;;;;;2.13;0.70;;;;;;;;;;11182279;26;20004;-75
2024/04/15 22:06:38;;;;;;;0.98;0.57;;;;;;;;;;11178234;26;20012;-75
2024/04/15 22:11:43;;;;;;;2.28;0.80;;;;;;;;;;11184643;26;20007;-75
2024/04/15 22:16:48;;;;;;;1.55;0.60;;;;;;;;;;11188047;26;20007;-75
2024/04/15 22:21:56;;;;;;;3.65;1.27;;;;;;;;;;11186172;26;20012;-75
2024/04/15 22:27:01;;;;;;;4.35;1.45;;;;;;;;;;11184220;26;20546;-75
2024/04/15 22:32:06;;;;;;;2.35;0.85;;;;;;;;;;11184213;26;20022;-73
2024/04/15 22:37:15;;;;;;;4.90;0.93;;;;;;;;;;11183170;26;20011;-75
2024/04/15 22:42:20;;;;;;;4.43;1.60;;;;;;;;;;11173041;26;20008;-75
2024/04/15 22:47:25;;;;;;;4.03;1.33;;;;;;;;;;11180785;26;20015;-75
2024/04/15 22:52:33;;;;;;;6.70;1.42;;;;;;;;;;11181514;26;20007;-75
2024/04/15 22:57:38;;;;;;;4.88;1.33;;;;;;;;;;11180921;26;20007;-73
2024/04/15 23:02:43;;;;;;;3.40;1.13;;;;;;;;;;11187055;26;20011;-73
2024/04/15 23:07:51;;;;;;;5.72;1.48;;;;;;;;;;11187640;26;20007;-73
2024/04/15 23:12:56;;;;;;;3.50;1.10;;;;;;;;;;11188427;26;20714;-73
2024/04/15 23:18:01;;;;;;;5.07;1.48;;;;;;;;;;11188020;26;20012;-73
2024/04/15 23:23:09;;;;;;;4.47;1.60;;;;;;;;;;11185960;26;20018;-73
2024/04/15 23:28:14;;;;;;;9.02;1.95;;;;;;;;;;11184826;26;20034;-73
2024/04/15 23:33:19;;;;;;;4.13;1.45;;;;;;;;;;11185738;26;20023;-73
2024/04/15 23:38:27;;;;;;;7.35;2.15;;;;;;;;;;11182739;26;20012;-73
2024/04/15 23:43:32;;;;;;;4.97;1.60;;;;;;;;;;11180070;26;20033;-73
2024/04/15 23:48:56;;;;;;;2.55;1.25;;;;;;;;;;11185276;26;20004;-73
2024/04/15 23:54:22;;;;;;;2.72;0.95;;;;;;;;;;11184227;26;20007;-73
2024/04/15 23:59:46;;;;;;;;;;;;;;;;;;11181950;26;20004;-76
